createdAt,value
2018-02-27T00:00:38.478Z,99102.50
2018-02-27T00:03:05.896Z,99105.89
2018-02-27T00:05:33.301Z,99105.06
2018-02-27T00:08:00.708Z,99098.25
2018-02-27T00:10:28.945Z,99091.45
2018-02-27T00:12:56.349Z,99092.33
2018-02-27T00:15:23.877Z,99091.91
2018-02-27T00:17:51.279Z,99088.50
2018-02-27T00:20:18.700Z,99091.47
2018-02-27T00:22:46.108Z,99084.67
2018-02-27T00:25:13.536Z,99091.05
2018-02-27T00:27:40.941Z,99091.45
2018-02-27T00:30:08.363Z,99090.60
2018-02-27T00:32:36.095Z,99088.51
2018-02-27T00:35:03.500Z,99088.51
2018-02-27T00:37:30.916Z,99093.17
2018-02-27T00:39:58.332Z,99089.75
2018-02-27T00:42:25.740Z,99090.20
2018-02-27T00:44:53.167Z,99096.13
2018-02-27T00:47:20.578Z,99088.48
2018-02-27T00:49:47.984Z,99086.37
2018-02-27T00:52:15.392Z,99086.37
2018-02-27T00:54:42.803Z,99089.75
2018-02-27T00:57:10.222Z,99091.88
2018-02-27T00:59:37.632Z,99084.66
2018-02-27T01:02:05.057Z,99088.04
2018-02-27T01:04:32.457Z,99084.64
2018-02-27T01:06:59.873Z,99081.69
2018-02-27T01:09:27.271Z,99081.70
2018-02-27T01:11:55.284Z,99074.04
2018-02-27T01:14:22.687Z,99077.86
2018-02-27T01:16:50.114Z,99076.16
2018-02-27T01:19:17.520Z,99074.89
2018-02-27T01:21:44.927Z,99075.73
2018-02-27T01:24:12.341Z,99073.61
2018-02-27T01:26:39.773Z,99075.72
2018-02-27T01:29:07.188Z,99074.88
2018-02-27T01:31:34.608Z,99066.39
2018-02-27T01:34:02.014Z,99064.27
2018-02-27T01:36:29.421Z,99061.72
2018-02-27T01:38:56.834Z,99060.46
2018-02-27T01:41:24.272Z,99060.44
2018-02-27T01:43:51.688Z,99057.91
2018-02-27T01:46:19.094Z,99057.47
2018-02-27T01:48:46.512Z,99053.66
2018-02-27T01:51:14.604Z,99052.38
2018-02-27T01:53:42.013Z,99052.38
2018-02-27T01:56:09.429Z,99048.97
2018-02-27T01:58:36.847Z,99055.33
2018-02-27T02:01:04.257Z,99051.08
2018-02-27T02:03:31.697Z,99047.27
2018-02-27T02:05:59.110Z,99044.72
2018-02-27T02:08:26.929Z,99038.38
2018-02-27T02:10:54.328Z,99040.50
2018-02-27T02:13:21.742Z,99037.10
2018-02-27T02:15:49.149Z,99037.09
2018-02-27T02:18:16.581Z,99029.02
2018-02-27T02:20:43.985Z,99028.19
2018-02-27T02:23:11.412Z,99024.36
2018-02-27T02:25:38.827Z,99019.26
2018-02-27T02:28:06.246Z,99019.69
2018-02-27T02:30:33.659Z,99021.80
2018-02-27T02:33:01.080Z,99021.39
2018-02-27T02:35:28.486Z,99023.08
2018-02-27T02:37:55.900Z,99011.64
2018-02-27T02:40:23.307Z,99015.88
2018-02-27T02:42:50.742Z,99017.14
2018-02-27T02:45:18.145Z,99010.79
2018-02-27T02:47:45.557Z,99017.58
2018-02-27T02:50:12.981Z,99019.28
2018-02-27T02:52:40.381Z,99013.74
2018-02-27T02:55:07.799Z,99011.22
2018-02-27T02:57:35.210Z,99014.20
2018-02-27T03:00:02.632Z,99013.33
2018-02-27T03:02:30.038Z,99007.81
2018-02-27T03:04:57.465Z,99003.59
2018-02-27T03:07:24.870Z,99004.84
2018-02-27T03:09:52.289Z,98999.31
2018-02-27T03:12:19.693Z,99003.16
2018-02-27T03:14:47.113Z,99000.18
2018-02-27T03:17:14.524Z,99001.02
2018-02-27T03:19:42.044Z,98998.48
2018-02-27T03:22:09.457Z,98999.75
2018-02-27T03:24:36.876Z,98994.23
2018-02-27T03:27:04.294Z,98988.30
2018-02-27T03:29:31.713Z,98988.71
2018-02-27T03:31:59.357Z,98987.87
2018-02-27T03:34:26.781Z,98988.70
2018-02-27T03:36:54.205Z,98984.05
2018-02-27T03:39:21.625Z,98987.87
2018-02-27T03:41:49.041Z,98977.67
2018-02-27T03:44:16.448Z,98977.25
2018-02-27T03:46:43.862Z,98978.55
2018-02-27T03:49:11.272Z,98972.19
2018-02-27T03:51:38.689Z,98980.67
2018-02-27T03:54:06.109Z,98984.05
2018-02-27T03:56:33.524Z,98978.54
2018-02-27T03:59:00.936Z,98979.37
2018-02-27T04:01:28.438Z,98969.61
2018-02-27T04:03:55.840Z,98970.91
2018-02-27T04:06:23.256Z,98963.68
2018-02-27T04:08:50.675Z,98964.95
2018-02-27T04:11:18.097Z,98964.10
2018-02-27T04:13:45.496Z,98962.82
2018-02-27T04:16:12.918Z,98965.39
2018-02-27T04:18:40.322Z,98967.94
2018-02-27T04:21:07.743Z,98959.42
2018-02-27T04:23:35.148Z,98959.84
2018-02-27T04:26:02.569Z,98958.58
2018-02-27T04:28:30.681Z,98958.58
2018-02-27T04:30:58.097Z,98959.02
2018-02-27T04:33:25.500Z,98959.44
2018-02-27T04:35:52.917Z,98970.05
2018-02-27T04:38:20.336Z,98964.52
2018-02-27T04:40:47.750Z,98959.88
2018-02-27T04:43:15.171Z,98968.34
2018-02-27T04:45:42.586Z,98967.91
2018-02-27T04:48:09.993Z,98958.14
2018-02-27T04:50:37.434Z,98967.91
2018-02-27T04:53:04.841Z,98968.75
2018-02-27T04:55:32.256Z,98970.44
2018-02-27T04:57:59.657Z,98971.30
2018-02-27T05:00:27.085Z,98971.31
2018-02-27T05:02:54.504Z,98968.73
2018-02-27T05:05:21.903Z,98970.87
2018-02-27T05:07:49.326Z,98971.27
2018-02-27T05:10:17.505Z,98965.75
2018-02-27T05:12:44.926Z,98964.48
2018-02-27T05:15:12.342Z,98964.93
2018-02-27T05:17:39.760Z,98964.52
2018-02-27T05:20:07.173Z,98960.25
2018-02-27T05:22:34.592Z,98963.20
2018-02-27T05:25:02.500Z,98958.56
2018-02-27T05:27:30.550Z,98957.70
2018-02-27T05:29:57.957Z,98961.11
2018-02-27T05:32:25.370Z,98959.81
2018-02-27T05:34:52.789Z,98956.41
2018-02-27T05:37:20.210Z,98956.84
2018-02-27T05:39:47.626Z,98954.30
2018-02-27T05:42:15.886Z,98950.09
2018-02-27T05:44:43.300Z,98962.34
2018-02-27T05:47:10.721Z,98953.87
2018-02-27T05:49:38.139Z,98954.73
2018-02-27T05:52:05.552Z,98962.38
2018-02-27T05:54:32.983Z,98958.13
2018-02-27T05:57:00.392Z,98954.73
2018-02-27T05:59:27.810Z,98962.34
2018-02-27T06:01:55.229Z,98950.90
2018-02-27T06:04:22.701Z,98963.22
2018-02-27T06:06:50.134Z,98958.53
2018-02-27T06:09:17.541Z,98959.78
2018-02-27T06:11:44.957Z,98959.80
2018-02-27T06:14:12.368Z,98956.84
2018-02-27T06:16:39.800Z,98960.64
2018-02-27T06:19:07.213Z,98961.92
2018-02-27T06:21:35.209Z,98962.78
2018-02-27T06:24:02.613Z,98962.76
2018-02-27T06:26:30.033Z,98965.31
2018-02-27T06:28:57.530Z,98961.49
2018-02-27T06:31:25.006Z,98967.88
2018-02-27T06:33:52.392Z,98962.34
2018-02-27T06:36:19.796Z,98968.71
2018-02-27T06:38:47.224Z,98965.71
2018-02-27T06:41:14.641Z,98970.41
2018-02-27T06:43:42.066Z,98967.03
2018-02-27T06:46:09.468Z,98965.73
2018-02-27T06:48:36.887Z,98957.68
2018-02-27T06:51:04.292Z,98959.82
2018-02-27T06:53:31.714Z,98954.75
2018-02-27T06:55:59.140Z,98965.77
2018-02-27T06:58:26.549Z,98954.75
2018-02-27T07:00:53.961Z,98956.89
2018-02-27T07:03:21.392Z,98961.55
2018-02-27T07:05:48.808Z,98958.59
2018-02-27T07:08:16.230Z,98959.88
2018-02-27T07:10:43.645Z,98962.42
2018-02-27T07:13:11.049Z,98961.13
2018-02-27T07:15:39.298Z,98964.09
2018-02-27T07:18:07.244Z,98961.97
2018-02-27T07:20:34.646Z,98959.02
2018-02-27T07:23:02.133Z,98958.17
2018-02-27T07:25:29.539Z,98963.70
2018-02-27T07:27:56.947Z,98962.40
2018-02-27T07:30:24.358Z,98959.43
2018-02-27T07:32:51.784Z,98959.42
2018-02-27T07:35:20.263Z,98965.80
2018-02-27T07:37:47.652Z,98962.00
2018-02-27T07:40:15.066Z,98962.40
2018-02-27T07:42:42.484Z,98967.07
2018-02-27T07:45:09.897Z,98963.27
2018-02-27T07:47:37.323Z,98967.50
2018-02-27T07:50:04.723Z,98968.33
2018-02-27T07:52:32.141Z,98967.89
2018-02-27T07:54:59.547Z,98965.80
2018-02-27T07:57:26.974Z,98963.24
2018-02-27T07:59:54.382Z,98964.92
2018-02-27T08:02:21.806Z,98972.16
2018-02-27T08:04:49.216Z,98968.33
2018-02-27T08:07:16.634Z,98966.63
2018-02-27T08:09:44.056Z,98960.24
2018-02-27T08:12:11.508Z,98950.48
2018-02-27T08:14:39.549Z,98953.85
2018-02-27T08:17:07.412Z,98955.53
2018-02-27T08:19:34.829Z,98953.43
2018-02-27T08:22:02.256Z,98957.66
2018-02-27T08:24:29.669Z,98954.27
2018-02-27T08:26:57.085Z,98954.26
2018-02-27T08:29:24.493Z,98957.28
2018-02-27T08:31:51.900Z,98951.34
2018-02-27T08:34:19.317Z,98964.89
2018-02-27T08:36:46.720Z,98963.19
2018-02-27T08:39:14.149Z,98960.62
2018-02-27T08:41:41.564Z,98963.56
2018-02-27T08:44:08.988Z,98964.91
2018-02-27T08:46:36.394Z,98959.42
2018-02-27T08:49:03.951Z,98963.19
2018-02-27T08:51:31.360Z,98958.52
2018-02-27T08:53:58.784Z,98959.34
2018-02-27T08:56:26.199Z,98957.61
2018-02-27T08:58:53.630Z,98955.45
2018-02-27T09:01:21.044Z,98946.98
2018-02-27T09:03:48.460Z,98945.67
2018-02-27T09:06:15.867Z,98954.99
2018-02-27T09:08:43.284Z,98948.22
2018-02-27T09:11:10.691Z,98949.90
2018-02-27T09:13:38.113Z,98945.69
2018-02-27T09:16:05.539Z,98934.56
2018-02-27T09:18:33.935Z,98940.39
2018-02-27T09:21:01.356Z,98936.25
2018-02-27T09:23:28.770Z,98937.55
2018-02-27T09:25:56.178Z,98933.67
2018-02-27T09:28:23.596Z,98939.61
2018-02-27T09:30:52.098Z,98937.55
2018-02-27T09:33:19.507Z,98928.98
2018-02-27T09:35:48.685Z,98929.00
2018-02-27T09:38:16.065Z,98929.86
2018-02-27T09:40:43.657Z,98928.07
2018-02-27T09:43:11.044Z,98924.06
2018-02-27T09:45:38.881Z,98929.23
2018-02-27T09:48:06.289Z,98932.23
2018-02-27T09:50:33.714Z,98924.45
2018-02-27T09:53:01.132Z,98932.09
2018-02-27T09:55:28.564Z,98932.54
2018-02-27T09:57:55.984Z,98933.95
2018-02-27T10:00:23.405Z,98930.30
2018-02-27T10:02:50.818Z,98921.99
2018-02-27T10:05:18.953Z,98931.91
2018-02-27T10:07:46.369Z,98931.19
2018-02-27T10:10:13.869Z,98929.71
2018-02-27T10:12:41.282Z,98926.64
2018-02-27T10:15:09.326Z,98929.02
2018-02-27T10:17:36.748Z,98922.12
2018-02-27T10:20:04.171Z,98923.20
2018-02-27T10:22:31.581Z,98920.89
2018-02-27T10:24:59.003Z,98919.31
2018-02-27T10:27:26.484Z,98918.23
2018-02-27T10:29:53.834Z,98921.41
2018-02-27T10:32:21.236Z,98923.95
2018-02-27T10:34:48.669Z,98927.04
2018-02-27T10:37:16.097Z,98924.31
2018-02-27T10:39:43.516Z,98928.63
2018-02-27T10:42:10.925Z,98924.09
2018-02-27T10:44:38.344Z,98916.34
2018-02-27T10:47:05.777Z,98924.10
2018-02-27T10:49:33.212Z,98913.89
2018-02-27T10:52:00.618Z,98920.48
2018-02-27T10:54:28.050Z,98917.86
2018-02-27T10:56:55.445Z,98915.73
2018-02-27T10:59:22.921Z,98914.17
2018-02-27T11:02:00.188Z,98915.41
2018-02-27T11:04:27.619Z,98916.30
2018-02-27T11:06:55.029Z,98906.69
2018-02-27T11:09:22.445Z,98910.49
2018-02-27T11:11:50.803Z,98905.44
2018-02-27T11:14:18.910Z,98904.23
2018-02-27T11:16:46.329Z,98903.95
2018-02-27T11:19:13.741Z,98898.81
2018-02-27T11:21:41.152Z,98887.16
2018-02-27T11:24:08.565Z,98889.25
2018-02-27T11:26:35.986Z,98885.06
2018-02-27T11:29:03.414Z,98887.03
2018-02-27T11:31:30.837Z,98888.66
2018-02-27T11:33:58.559Z,98887.28
2018-02-27T11:36:26.264Z,98887.28
2018-02-27T11:38:53.678Z,98880.37
2018-02-27T11:41:21.099Z,98883.73
2018-02-27T11:43:49.125Z,98874.52
2018-02-27T11:46:16.551Z,98872.37
2018-02-27T11:48:43.968Z,98871.33
2018-02-27T11:51:11.388Z,98865.33
2018-02-27T11:53:38.806Z,98874.78
2018-02-27T11:56:06.241Z,98862.11
2018-02-27T11:58:33.661Z,98868.86
2018-02-27T12:01:01.083Z,98865.52
2018-02-27T12:03:28.501Z,98872.13
2018-02-27T12:05:55.922Z,98861.23
2018-02-27T12:08:23.327Z,98861.89
2018-02-27T12:10:50.757Z,98859.66
2018-02-27T12:13:18.166Z,98855.89
2018-02-27T12:15:45.598Z,98850.75
2018-02-27T12:18:13.007Z,98858.20
2018-02-27T12:20:40.439Z,98852.69
2018-02-27T12:23:07.855Z,98844.08
2018-02-27T12:25:35.275Z,98846.88
2018-02-27T12:28:02.707Z,98852.31
2018-02-27T12:30:30.142Z,98852.00
2018-02-27T12:32:57.554Z,98844.56
2018-02-27T12:35:25.258Z,98844.47
2018-02-27T12:37:52.681Z,98839.30
2018-02-27T12:40:20.110Z,98836.62
2018-02-27T12:42:47.529Z,98835.28
2018-02-27T12:45:14.954Z,98830.11
2018-02-27T12:47:42.368Z,98836.55
2018-02-27T12:50:09.784Z,98836.70
2018-02-27T12:52:38.792Z,98835.63
2018-02-27T12:55:06.207Z,98832.22
2018-02-27T12:57:33.636Z,98831.23
2018-02-27T13:00:01.047Z,98830.11
2018-02-27T13:02:28.462Z,98831.56
2018-02-27T13:04:55.929Z,98827.66
2018-02-27T13:07:23.300Z,98826.69
2018-02-27T13:09:50.752Z,98827.80
2018-02-27T13:12:18.173Z,98834.03
2018-02-27T13:14:45.585Z,98826.23
2018-02-27T13:17:13.002Z,98827.17
2018-02-27T13:19:40.422Z,98818.50
2018-02-27T13:22:07.831Z,98825.09
2018-02-27T13:24:36.020Z,98814.52
2018-02-27T13:27:03.455Z,98817.84
2018-02-27T13:29:30.869Z,98803.87
2018-02-27T13:31:58.293Z,98802.58
2018-02-27T13:34:25.751Z,98818.50
2018-02-27T13:36:53.988Z,98815.21
2018-02-27T13:39:21.416Z,98814.03
2018-02-27T13:41:48.851Z,98808.88
2018-02-27T13:44:16.258Z,98808.94
2018-02-27T13:46:43.901Z,98806.77
2018-02-27T13:49:11.299Z,98804.30
2018-02-27T13:51:38.713Z,98801.70
2018-02-27T13:54:06.137Z,98806.70
2018-02-27T13:56:33.544Z,98812.28
2018-02-27T13:59:00.993Z,98808.73
2018-02-27T14:01:28.409Z,98805.47
2018-02-27T14:03:55.809Z,98805.80
2018-02-27T14:06:24.233Z,98808.52
2018-02-27T14:08:51.708Z,98804.13
2018-02-27T14:11:19.085Z,98806.56
2018-02-27T14:13:46.507Z,98802.02
2018-02-27T14:16:13.925Z,98807.60
2018-02-27T14:18:41.349Z,98794.24
2018-02-27T14:21:08.756Z,98803.45
2018-02-27T14:23:36.202Z,98795.00
2018-02-27T14:26:03.616Z,98786.67
2018-02-27T14:28:31.042Z,98796.92
2018-02-27T14:30:58.448Z,98789.63
2018-02-27T14:33:25.866Z,98786.27
2018-02-27T14:35:53.282Z,98788.67
2018-02-27T14:38:20.704Z,98784.53
2018-02-27T14:40:48.114Z,98778.52
2018-02-27T14:43:15.539Z,98770.33
2018-02-27T14:45:45.229Z,98768.91
2018-02-27T14:48:12.646Z,98774.31
2018-02-27T14:50:40.686Z,98774.87
2018-02-27T14:53:08.217Z,98771.22
2018-02-27T14:55:35.689Z,98767.52
2018-02-27T14:58:03.108Z,98779.14
2018-02-27T15:00:30.517Z,98775.23
2018-02-27T15:02:57.941Z,98775.56
2018-02-27T15:05:25.684Z,98772.38
2018-02-27T15:07:53.100Z,98772.97
2018-02-27T15:10:20.508Z,98769.29
2018-02-27T15:12:47.929Z,98769.56
2018-02-27T15:15:15.343Z,98766.34
2018-02-27T15:17:42.764Z,98762.76
2018-02-27T15:20:10.412Z,98768.05
2018-02-27T15:22:37.832Z,98765.39
2018-02-27T15:25:05.249Z,98762.52
2018-02-27T15:27:32.677Z,98761.73
2018-02-27T15:30:00.088Z,98758.44
2018-02-27T15:32:27.517Z,98760.72
2018-02-27T15:34:54.921Z,98767.63
2018-02-27T15:37:22.333Z,98764.63
2018-02-27T15:39:50.465Z,98769.06
2018-02-27T15:42:18.001Z,98763.55
2018-02-27T15:44:46.063Z,98763.28
2018-02-27T15:47:13.476Z,98769.06
2018-02-27T15:49:40.891Z,98769.23
2018-02-27T15:52:08.299Z,98760.03
2018-02-27T15:54:35.726Z,98774.32
2018-02-27T15:57:03.153Z,98773.80
2018-02-27T15:59:30.566Z,98764.01
2018-02-27T16:01:57.982Z,98769.84
2018-02-27T16:04:25.402Z,98771.92
2018-02-27T16:06:52.810Z,98773.14
2018-02-27T16:09:20.239Z,98773.53
2018-02-27T16:11:47.661Z,98768.77
2018-02-27T16:14:15.065Z,98772.05
2018-02-27T16:16:42.477Z,98780.91
2018-02-27T16:19:09.901Z,98775.44
2018-02-27T16:21:37.369Z,98778.02
2018-02-27T16:24:04.737Z,98772.45
2018-02-27T16:26:32.154Z,98772.51
2018-02-27T16:28:59.576Z,98774.34
2018-02-27T16:31:28.017Z,98771.32
2018-02-27T16:33:55.442Z,98774.67
2018-02-27T16:36:22.853Z,98776.84
2018-02-27T16:38:50.267Z,98773.30
2018-02-27T16:41:17.694Z,98781.14
2018-02-27T16:43:45.115Z,98783.36
2018-02-27T16:46:12.529Z,98782.11
2018-02-27T16:48:39.951Z,98789.52
2018-02-27T16:51:07.348Z,98792.91
2018-02-27T16:53:34.769Z,98798.50
2018-02-27T16:56:02.180Z,98802.74
2018-02-27T16:58:29.592Z,98805.33
2018-02-27T17:00:57.004Z,98800.23
2018-02-27T17:03:24.428Z,98806.61
2018-02-27T17:05:51.852Z,98807.92
2018-02-27T17:08:19.260Z,98807.95
2018-02-27T17:10:46.683Z,98816.56
2018-02-27T17:13:14.080Z,98819.74
2018-02-27T17:15:41.509Z,98824.52
2018-02-27T17:18:08.913Z,98825.39
2018-02-27T17:20:36.338Z,98829.39
2018-02-27T17:23:03.748Z,98828.38
2018-02-27T17:25:31.171Z,98834.30
2018-02-27T17:27:58.575Z,98839.64
2018-02-27T17:30:25.989Z,98838.79
2018-02-27T17:32:53.404Z,98833.59
2018-02-27T17:35:20.816Z,98835.76
2018-02-27T17:37:48.221Z,98841.72
2018-02-27T17:40:15.645Z,98840.99
2018-02-27T17:42:43.058Z,98835.20
2018-02-27T17:45:10.472Z,98839.22
2018-02-27T17:47:37.898Z,98840.49
2018-02-27T17:50:05.306Z,98842.02
2018-02-27T17:52:32.731Z,98836.90
2018-02-27T17:55:00.786Z,98844.75
2018-02-27T17:57:29.929Z,98833.09
2018-02-27T17:59:57.338Z,98832.72
2018-02-27T18:02:24.765Z,98831.28
2018-02-27T18:04:52.189Z,98832.29
2018-02-27T18:07:19.610Z,98833.81
2018-02-27T18:09:47.019Z,98834.30
2018-02-27T18:12:14.434Z,98838.61
2018-02-27T18:14:42.106Z,98839.34
2018-02-27T18:17:09.509Z,98833.89
2018-02-27T18:19:36.919Z,98829.63
2018-02-27T18:22:06.306Z,98828.77
2018-02-27T18:24:35.556Z,98831.70
2018-02-27T18:27:03.026Z,98836.45
2018-02-27T18:29:30.542Z,98834.27
2018-02-27T18:31:58.072Z,98828.86
2018-02-27T18:34:25.479Z,98828.05
2018-02-27T18:36:52.888Z,98825.52
2018-02-27T18:39:20.292Z,98825.17
2018-02-27T18:41:47.704Z,98828.28
2018-02-27T18:44:15.132Z,98827.30
2018-02-27T18:46:42.538Z,98822.27
2018-02-27T18:49:09.945Z,98819.65
2018-02-27T18:51:37.360Z,98820.37
2018-02-27T18:54:04.770Z,98822.26
2018-02-27T18:56:32.649Z,98823.89
2018-02-27T18:59:00.069Z,98819.45
2018-02-27T19:01:27.486Z,98822.88
2018-02-27T19:03:54.908Z,98809.70
2018-02-27T19:06:22.327Z,98818.67
2018-02-27T19:08:49.746Z,98819.95
2018-02-27T19:11:17.166Z,98819.23
2018-02-27T19:13:44.569Z,98816.67
2018-02-27T19:16:11.989Z,98817.55
2018-02-27T19:18:40.320Z,98823.28
2018-02-27T19:21:07.742Z,98816.04
2018-02-27T19:23:35.154Z,98821.63
2018-02-27T19:26:03.905Z,98822.45
2018-02-27T19:28:32.041Z,98824.16
2018-02-27T19:30:59.458Z,98829.98
2018-02-27T19:33:26.870Z,98831.83
2018-02-27T19:35:54.284Z,98829.39
2018-02-27T19:38:21.695Z,98831.07
2018-02-27T19:40:49.113Z,98826.43
2018-02-27T19:43:16.521Z,98832.39
2018-02-27T19:45:44.182Z,98832.08
2018-02-27T19:48:11.596Z,98832.17
2018-02-27T19:50:39.017Z,98833.51
2018-02-27T19:53:06.422Z,98827.64
2018-02-27T19:55:34.702Z,98824.32
2018-02-27T19:58:02.117Z,98825.77
2018-02-27T20:00:29.854Z,98834.00
2018-02-27T20:02:57.263Z,98824.30
2018-02-27T20:05:24.677Z,98831.20
2018-02-27T20:07:52.088Z,98833.34
2018-02-27T20:10:19.500Z,98834.72
2018-02-27T20:12:46.928Z,98833.44
2018-02-27T20:15:14.332Z,98835.65
2018-02-27T20:17:47.277Z,98831.38
2018-02-27T20:20:14.767Z,98829.67
2018-02-27T20:22:47.925Z,98834.43
2018-02-27T20:25:15.337Z,98832.28
2018-02-27T20:27:42.757Z,98839.17
2018-02-27T20:30:10.171Z,98846.00
2018-02-27T20:32:37.597Z,98843.45
2018-02-27T20:35:05.014Z,98840.48
2018-02-27T20:37:32.438Z,98846.41
2018-02-27T20:39:59.847Z,98852.38
2018-02-27T20:42:27.270Z,98853.31
2018-02-27T20:44:54.676Z,98852.88
2018-02-27T20:47:22.133Z,98854.08
2018-02-27T20:49:49.554Z,98847.35
2018-02-27T20:52:16.974Z,98848.22
2018-02-27T20:54:44.428Z,98850.73
2018-02-27T20:57:11.827Z,98848.63
2018-02-27T20:59:39.555Z,98849.83
2018-02-27T21:02:07.129Z,98856.55
2018-02-27T21:04:34.528Z,98862.10
2018-02-27T21:07:01.947Z,98861.67
2018-02-27T21:09:29.357Z,98862.52
2018-02-27T21:11:56.775Z,98856.16
2018-02-27T21:14:24.180Z,98859.45
2018-02-27T21:16:51.602Z,98854.66
2018-02-27T21:19:19.017Z,98852.81
2018-02-27T21:21:46.453Z,98850.06
2018-02-27T21:24:13.864Z,98849.17
2018-02-27T21:26:41.273Z,98846.43
2018-02-27T21:29:08.694Z,98849.27
2018-02-27T21:31:36.106Z,98846.84
2018-02-27T21:34:03.527Z,98847.86
2018-02-27T21:36:30.939Z,98849.14
2018-02-27T21:38:58.376Z,98846.20
2018-02-27T21:41:25.781Z,98847.91
2018-02-27T21:43:53.216Z,98845.71
2018-02-27T21:46:20.630Z,98849.05
2018-02-27T21:48:48.054Z,98838.15
2018-02-27T21:51:15.461Z,98847.17
2018-02-27T21:53:42.881Z,98847.80
2018-02-27T21:56:10.348Z,98848.77
2018-02-27T21:58:37.765Z,98845.52
2018-02-27T22:02:40.610Z,98844.31
2018-02-27T22:05:07.986Z,98846.52
2018-02-27T22:07:35.412Z,98850.36
2018-02-27T22:10:02.842Z,98844.02
2018-02-27T22:12:30.296Z,98851.23
2018-02-27T22:14:57.701Z,98849.97
2018-02-27T22:17:25.184Z,98846.99
2018-02-27T22:19:52.606Z,98845.73
2018-02-27T22:22:20.046Z,98849.99
2018-02-27T22:24:47.508Z,98853.80
2018-02-27T22:27:14.912Z,98853.80
2018-02-27T22:29:42.331Z,98856.35
2018-02-27T22:32:09.751Z,98854.25
2018-02-27T22:34:37.210Z,98858.90
2018-02-27T22:37:04.701Z,98861.02
2018-02-27T22:39:32.094Z,98856.75
2018-02-27T22:41:59.516Z,98852.08
2018-02-27T22:44:26.963Z,98850.36
2018-02-27T22:46:54.377Z,98852.86
2018-02-27T22:49:21.833Z,98854.59
2018-02-27T22:51:49.258Z,98848.66
2018-02-27T22:54:16.678Z,98855.90
2018-02-27T22:56:44.079Z,98851.67
2018-02-27T22:59:12.215Z,98848.72
2018-02-27T23:01:39.633Z,98844.89
2018-02-27T23:04:07.054Z,98847.02
2018-02-27T23:06:34.530Z,98843.63
2018-02-27T23:09:01.955Z,98841.09
2018-02-27T23:11:29.400Z,98849.16
2018-02-27T23:13:56.833Z,98850.44
2018-02-27T23:16:24.286Z,98843.20
2018-02-27T23:18:51.712Z,98836.01
2018-02-27T23:21:19.178Z,98841.09
2018-02-27T23:23:48.279Z,98839.82
2018-02-27T23:26:17.474Z,98847.03
2018-02-27T23:28:45.145Z,98854.25
2018-02-27T23:31:13.981Z,98845.33
2018-02-27T23:33:42.636Z,98846.19
2018-02-27T23:36:10.100Z,98849.14
2018-02-27T23:38:37.534Z,98838.56
2018-02-27T23:41:05.001Z,98838.12
2018-02-27T23:43:32.378Z,98837.75
2018-02-27T23:46:00.293Z,98838.12
2018-02-27T23:48:27.729Z,98836.05
2018-02-27T23:50:55.158Z,98831.81
2018-02-27T23:53:22.584Z,98834.72
2018-02-27T23:55:50.014Z,98828.38
2018-02-27T23:58:17.463Z,98825.39
